sensor_id;sensor_type;location;lat;lon;timestamp;temperature;humidity
680;DHT22;322;48.846;9.230;2023-05-14T00:01:18;11.60;99.90
680;DHT22;322;48.846;9.230;2023-05-14T00:03:46;11.50;99.90
680;DHT22;322;48.846;9.230;2023-05-14T00:06:14;11.50;99.90
680;DHT22;322;48.846;9.230;2023-05-14T00:08:42;11.40;99.90
680;DHT22;322;48.846;9.230;2023-05-14T00:11:11;11.40;99.90
680;DHT22;322;48.846;9.230;2023-05-14T00:13:39;11.50;99.90
680;DHT22;322;48.846;9.230;2023-05-14T00:16:07;11.40;99.90
680;DHT22;322;48.846;9.230;2023-05-14T00:18:35;11.40;99.90
680;DHT22;322;48.846;9.230;2023-05-14T00:21:03;11.50;99.90
680;DHT22;322;48.846;9.230;2023-05-14T00:23:31;11.40;99.90
680;DHT22;322;48.846;9.230;2023-05-14T00:25:59;11.40;99.90
680;DHT22;322;48.846;9.230;2023-05-14T00:28:28;11.50;99.90
680;DHT22;322;48.846;9.230;2023-05-14T00:30:56;11.40;99.90
680;DHT22;322;48.846;9.230;2023-05-14T00:33:24;11.30;99.90
680;DHT22;322;48.846;9.230;2023-05-14T00:35:52;11.30;99.90
680;DHT22;322;48.846;9.230;2023-05-14T00:38:20;11.20;99.90
680;DHT22;322;48.846;9.230;2023-05-14T00:40:49;11.10;99.90
680;DHT22;322;48.846;9.230;2023-05-14T00:43:18;11.10;99.90
680;DHT22;322;48.846;9.230;2023-05-14T00:45:49;11.00;99.90
680;DHT22;322;48.846;9.230;2023-05-14T00:48:17;10.80;99.90
680;DHT22;322;48.846;9.230;2023-05-14T00:50:46;10.80;99.90
680;DHT22;322;48.846;9.230;2023-05-14T00:53:16;10.80;99.90
680;DHT22;322;48.846;9.230;2023-05-14T00:55:45;10.70;99.90
680;DHT22;322;48.846;9.230;2023-05-14T00:58:13;10.70;99.90
680;DHT22;322;48.846;9.230;2023-05-14T01:00:41;10.80;99.90
680;DHT22;322;48.846;9.230;2023-05-14T01:03:10;10.80;99.90
680;DHT22;322;48.846;9.230;2023-05-14T01:05:45;10.80;99.90
680;DHT22;322;48.846;9.230;2023-05-14T01:08:30;10.80;99.90
680;DHT22;322;48.846;9.230;2023-05-14T01:11:04;10.70;99.90
680;DHT22;322;48.846;9.230;2023-05-14T01:13:39;10.60;99.90
680;DHT22;322;48.846;9.230;2023-05-14T01:16:11;10.50;99.90
680;DHT22;322;48.846;9.230;2023-05-14T01:18:43;10.40;99.90
680;DHT22;322;48.846;9.230;2023-05-14T01:21:26;10.40;99.90
680;DHT22;322;48.846;9.230;2023-05-14T01:23:59;10.30;99.90
680;DHT22;322;48.846;9.230;2023-05-14T01:26:27;10.10;99.90
680;DHT22;322;48.846;9.230;2023-05-14T01:29:01;10.00;99.90
680;DHT22;322;48.846;9.230;2023-05-14T01:31:31;10.00;99.90
680;DHT22;322;48.846;9.230;2023-05-14T01:34:03;9.90;99.90
680;DHT22;322;48.846;9.230;2023-05-14T01:36:34;9.80;99.90
680;DHT22;322;48.846;9.230;2023-05-14T01:39:02;9.80;99.90
680;DHT22;322;48.846;9.230;2023-05-14T01:41:31;9.90;99.90
680;DHT22;322;48.846;9.230;2023-05-14T01:43:59;9.80;99.90
680;DHT22;322;48.846;9.230;2023-05-14T01:46:30;9.90;99.90
680;DHT22;322;48.846;9.230;2023-05-14T01:48:58;9.80;99.90
680;DHT22;322;48.846;9.230;2023-05-14T01:51:26;9.90;99.90
680;DHT22;322;48.846;9.230;2023-05-14T01:53:55;9.90;99.90
680;DHT22;322;48.846;9.230;2023-05-14T01:56:23;9.90;99.90
680;DHT22;322;48.846;9.230;2023-05-14T01:58:52;9.90;99.90
680;DHT22;322;48.846;9.230;2023-05-14T02:01:21;9.90;99.90
680;DHT22;322;48.846;9.230;2023-05-14T02:03:49;9.80;99.90
680;DHT22;322;48.846;9.230;2023-05-14T02:06:17;9.70;99.90
680;DHT22;322;48.846;9.230;2023-05-14T02:08:45;9.70;99.90
680;DHT22;322;48.846;9.230;2023-05-14T02:11:14;9.80;99.90
680;DHT22;322;48.846;9.230;2023-05-14T02:13:42;9.80;99.90
680;DHT22;322;48.846;9.230;2023-05-14T02:16:10;9.80;99.90
680;DHT22;322;48.846;9.230;2023-05-14T02:18:38;9.70;99.90
680;DHT22;322;48.846;9.230;2023-05-14T02:21:06;9.70;99.90
680;DHT22;322;48.846;9.230;2023-05-14T02:23:34;9.60;99.90
680;DHT22;322;48.846;9.230;2023-05-14T02:26:08;9.50;99.90
680;DHT22;322;48.846;9.230;2023-05-14T02:28:37;9.40;99.90
680;DHT22;322;48.846;9.230;2023-05-14T02:31:05;9.40;99.90
680;DHT22;322;48.846;9.230;2023-05-14T02:33:33;9.40;99.90
680;DHT22;322;48.846;9.230;2023-05-14T02:36:01;9.40;99.90
680;DHT22;322;48.846;9.230;2023-05-14T02:38:29;9.30;99.90
680;DHT22;322;48.846;9.230;2023-05-14T02:40:57;9.30;99.90
680;DHT22;322;48.846;9.230;2023-05-14T02:43:25;9.20;99.90
680;DHT22;322;48.846;9.230;2023-05-14T02:45:54;9.30;99.90
680;DHT22;322;48.846;9.230;2023-05-14T02:48:22;9.50;99.90
680;DHT22;322;48.846;9.230;2023-05-14T02:50:50;9.60;99.90
680;DHT22;322;48.846;9.230;2023-05-14T02:53:18;9.60;99.90
680;DHT22;322;48.846;9.230;2023-05-14T02:55:46;9.70;99.90
680;DHT22;322;48.846;9.230;2023-05-14T02:58:13;9.70;99.90
680;DHT22;322;48.846;9.230;2023-05-14T03:00:41;9.80;99.90
680;DHT22;322;48.846;9.230;2023-05-14T03:03:11;9.80;99.90
680;DHT22;322;48.846;9.230;2023-05-14T03:05:39;9.80;99.90
680;DHT22;322;48.846;9.230;2023-05-14T03:08:07;9.80;99.90
680;DHT22;322;48.846;9.230;2023-05-14T03:10:35;9.70;99.90
680;DHT22;322;48.846;9.230;2023-05-14T03:13:03;9.70;99.90
680;DHT22;322;48.846;9.230;2023-05-14T03:15:31;9.70;99.90
680;DHT22;322;48.846;9.230;2023-05-14T03:17:59;9.70;99.90
680;DHT22;322;48.846;9.230;2023-05-14T03:20:28;9.80;99.90
680;DHT22;322;48.846;9.230;2023-05-14T03:22:56;9.80;99.90
680;DHT22;322;48.846;9.230;2023-05-14T03:25:24;9.80;99.90
680;DHT22;322;48.846;9.230;2023-05-14T03:27:52;9.80;99.90
680;DHT22;322;48.846;9.230;2023-05-14T03:30:20;9.80;99.90
680;DHT22;322;48.846;9.230;2023-05-14T03:32:48;9.90;99.90
680;DHT22;322;48.846;9.230;2023-05-14T03:35:16;9.90;99.90
680;DHT22;322;48.846;9.230;2023-05-14T03:37:45;9.90;99.90
680;DHT22;322;48.846;9.230;2023-05-14T03:40:13;9.80;99.90
680;DHT22;322;48.846;9.230;2023-05-14T03:42:41;9.90;99.90
680;DHT22;322;48.846;9.230;2023-05-14T03:45:09;9.90;99.90
680;DHT22;322;48.846;9.230;2023-05-14T03:47:37;9.90;99.90
680;DHT22;322;48.846;9.230;2023-05-14T03:50:06;9.90;99.90
680;DHT22;322;48.846;9.230;2023-05-14T03:52:34;10.00;99.90
680;DHT22;322;48.846;9.230;2023-05-14T03:55:04;10.10;99.90
680;DHT22;322;48.846;9.230;2023-05-14T03:57:32;10.20;99.90
680;DHT22;322;48.846;9.230;2023-05-14T04:00:00;10.20;99.90
680;DHT22;322;48.846;9.230;2023-05-14T04:02:28;10.20;99.90
680;DHT22;322;48.846;9.230;2023-05-14T04:04:56;10.20;99.90
680;DHT22;322;48.846;9.230;2023-05-14T04:07:24;10.20;99.90
680;DHT22;322;48.846;9.230;2023-05-14T04:09:52;10.20;99.90
680;DHT22;322;48.846;9.230;2023-05-14T04:12:22;10.20;99.90
680;DHT22;322;48.846;9.230;2023-05-14T04:14:49;10.10;99.90
680;DHT22;322;48.846;9.230;2023-05-14T04:17:17;10.20;99.90
680;DHT22;322;48.846;9.230;2023-05-14T04:19:45;10.30;99.90
680;DHT22;322;48.846;9.230;2023-05-14T04:22:13;10.30;99.90
680;DHT22;322;48.846;9.230;2023-05-14T04:24:41;10.30;99.90
680;DHT22;322;48.846;9.230;2023-05-14T04:27:09;10.40;99.90
680;DHT22;322;48.846;9.230;2023-05-14T04:29:38;10.50;99.90
680;DHT22;322;48.846;9.230;2023-05-14T04:32:06;10.50;99.90
680;DHT22;322;48.846;9.230;2023-05-14T04:34:34;10.60;99.90
680;DHT22;322;48.846;9.230;2023-05-14T04:37:03;10.70;99.90
680;DHT22;322;48.846;9.230;2023-05-14T04:39:31;10.70;99.90
680;DHT22;322;48.846;9.230;2023-05-14T04:41:58;10.60;99.90
680;DHT22;322;48.846;9.230;2023-05-14T04:44:26;10.60;99.90
680;DHT22;322;48.846;9.230;2023-05-14T04:46:56;10.60;99.90
680;DHT22;322;48.846;9.230;2023-05-14T04:49:23;10.60;99.90
680;DHT22;322;48.846;9.230;2023-05-14T04:51:51;10.60;99.90
680;DHT22;322;48.846;9.230;2023-05-14T04:54:19;10.60;99.90
680;DHT22;322;48.846;9.230;2023-05-14T04:56:48;10.70;99.90
680;DHT22;322;48.846;9.230;2023-05-14T04:59:16;10.70;99.90
680;DHT22;322;48.846;9.230;2023-05-14T05:01:44;10.70;99.90
680;DHT22;322;48.846;9.230;2023-05-14T05:04:13;10.80;99.90
680;DHT22;322;48.846;9.230;2023-05-14T05:06:41;10.90;99.90
680;DHT22;322;48.846;9.230;2023-05-14T05:09:09;11.10;99.90
680;DHT22;322;48.846;9.230;2023-05-14T05:11:38;11.10;99.90
680;DHT22;322;48.846;9.230;2023-05-14T05:14:05;11.20;99.90
680;DHT22;322;48.846;9.230;2023-05-14T05:16:33;11.10;99.90
680;DHT22;322;48.846;9.230;2023-05-14T05:19:02;11.10;99.90
680;DHT22;322;48.846;9.230;2023-05-14T05:21:31;11.20;99.90
680;DHT22;322;48.846;9.230;2023-05-14T05:23:59;11.30;99.90
680;DHT22;322;48.846;9.230;2023-05-14T05:26:27;11.40;99.90
680;DHT22;322;48.846;9.230;2023-05-14T05:28:55;11.40;99.90
680;DHT22;322;48.846;9.230;2023-05-14T05:31:23;11.50;99.90
680;DHT22;322;48.846;9.230;2023-05-14T05:33:51;11.60;99.90
680;DHT22;322;48.846;9.230;2023-05-14T05:36:19;11.70;99.90
680;DHT22;322;48.846;9.230;2023-05-14T05:38:48;11.80;99.90
680;DHT22;322;48.846;9.230;2023-05-14T05:41:16;11.80;99.90
680;DHT22;322;48.846;9.230;2023-05-14T05:43:44;11.80;99.90
680;DHT22;322;48.846;9.230;2023-05-14T05:46:12;11.90;99.90
680;DHT22;322;48.846;9.230;2023-05-14T05:48:40;11.90;99.90
680;DHT22;322;48.846;9.230;2023-05-14T05:51:08;11.90;99.90
680;DHT22;322;48.846;9.230;2023-05-14T05:53:36;11.80;99.90
680;DHT22;322;48.846;9.230;2023-05-14T05:56:06;11.80;99.90
680;DHT22;322;48.846;9.230;2023-05-14T05:58:34;12.00;99.90
680;DHT22;322;48.846;9.230;2023-05-14T06:01:02;12.10;99.90
680;DHT22;322;48.846;9.230;2023-05-14T06:03:30;12.30;99.90
680;DHT22;322;48.846;9.230;2023-05-14T06:05:58;12.30;99.90
680;DHT22;322;48.846;9.230;2023-05-14T06:08:26;12.40;99.90
680;DHT22;322;48.846;9.230;2023-05-14T06:10:54;12.50;99.40
680;DHT22;322;48.846;9.230;2023-05-14T06:13:23;12.60;99.30
680;DHT22;322;48.846;9.230;2023-05-14T06:15:51;12.50;98.10
680;DHT22;322;48.846;9.230;2023-05-14T06:18:19;12.50;98.50
680;DHT22;322;48.846;9.230;2023-05-14T06:20:47;12.50;98.50
680;DHT22;322;48.846;9.230;2023-05-14T06:23:15;12.50;99.30
680;DHT22;322;48.846;9.230;2023-05-14T06:25:43;12.70;99.10
680;DHT22;322;48.846;9.230;2023-05-14T06:28:11;12.80;97.10
680;DHT22;322;48.846;9.230;2023-05-14T06:30:40;13.00;98.80
680;DHT22;322;48.846;9.230;2023-05-14T06:33:08;13.30;97.30
680;DHT22;322;48.846;9.230;2023-05-14T06:38:04;13.50;95.30
680;DHT22;322;48.846;9.230;2023-05-14T06:40:32;13.50;94.40
680;DHT22;322;48.846;9.230;2023-05-14T06:42:59;13.40;95.10
680;DHT22;322;48.846;9.230;2023-05-14T06:45:28;13.50;95.40
680;DHT22;322;48.846;9.230;2023-05-14T06:48:00;13.50;95.00
680;DHT22;322;48.846;9.230;2023-05-14T06:50:28;13.40;94.30
680;DHT22;322;48.846;9.230;2023-05-14T06:52:56;13.40;94.70
680;DHT22;322;48.846;9.230;2023-05-14T06:55:24;13.50;94.20
680;DHT22;322;48.846;9.230;2023-05-14T06:57:52;13.70;93.20
680;DHT22;322;48.846;9.230;2023-05-14T07:00:21;13.60;93.90
680;DHT22;322;48.846;9.230;2023-05-14T07:02:49;13.80;93.40
680;DHT22;322;48.846;9.230;2023-05-14T07:05:18;14.00;92.60
680;DHT22;322;48.846;9.230;2023-05-14T07:07:46;14.00;92.10
680;DHT22;322;48.846;9.230;2023-05-14T07:10:14;14.10;92.10
680;DHT22;322;48.846;9.230;2023-05-14T07:12:42;14.20;93.20
680;DHT22;322;48.846;9.230;2023-05-14T07:15:11;14.30;94.40
680;DHT22;322;48.846;9.230;2023-05-14T07:17:39;14.60;94.20
680;DHT22;322;48.846;9.230;2023-05-14T07:20:08;15.00;92.20
680;DHT22;322;48.846;9.230;2023-05-14T07:22:37;15.10;93.70
680;DHT22;322;48.846;9.230;2023-05-14T07:25:06;15.50;90.80
680;DHT22;322;48.846;9.230;2023-05-14T07:27:34;15.40;91.40
680;DHT22;322;48.846;9.230;2023-05-14T07:30:02;15.60;92.60
680;DHT22;322;48.846;9.230;2023-05-14T07:32:30;15.70;88.80
680;DHT22;322;48.846;9.230;2023-05-14T07:34:58;15.70;88.90
680;DHT22;322;48.846;9.230;2023-05-14T07:37:26;15.80;84.50
680;DHT22;322;48.846;9.230;2023-05-14T07:39:55;15.60;86.50
680;DHT22;322;48.846;9.230;2023-05-14T07:42:24;15.80;85.10
680;DHT22;322;48.846;9.230;2023-05-14T07:45:02;15.80;85.30
680;DHT22;322;48.846;9.230;2023-05-14T07:47:31;15.90;82.50
680;DHT22;322;48.846;9.230;2023-05-14T07:49:59;15.90;81.80
680;DHT22;322;48.846;9.230;2023-05-14T07:52:27;16.20;82.20
680;DHT22;322;48.846;9.230;2023-05-14T07:54:57;16.60;80.30
680;DHT22;322;48.846;9.230;2023-05-14T07:57:25;16.50;81.10
680;DHT22;322;48.846;9.230;2023-05-14T07:59:53;16.60;78.60
680;DHT22;322;48.846;9.230;2023-05-14T08:02:21;16.40;78.90
680;DHT22;322;48.846;9.230;2023-05-14T08:04:49;16.60;79.20
680;DHT22;322;48.846;9.230;2023-05-14T08:07:17;16.80;81.90
680;DHT22;322;48.846;9.230;2023-05-14T08:09:45;17.00;77.60
680;DHT22;322;48.846;9.230;2023-05-14T08:12:14;17.00;77.80
680;DHT22;322;48.846;9.230;2023-05-14T08:14:43;17.00;77.60
680;DHT22;322;48.846;9.230;2023-05-14T08:17:11;16.60;78.20
680;DHT22;322;48.846;9.230;2023-05-14T08:19:39;16.30;80.50
680;DHT22;322;48.846;9.230;2023-05-14T08:22:07;16.40;80.70
680;DHT22;322;48.846;9.230;2023-05-14T08:24:35;16.20;79.50
680;DHT22;322;48.846;9.230;2023-05-14T08:27:03;16.20;80.80
680;DHT22;322;48.846;9.230;2023-05-14T08:29:33;16.30;80.70
680;DHT22;322;48.846;9.230;2023-05-14T08:32:01;16.50;80.40
680;DHT22;322;48.846;9.230;2023-05-14T08:34:48;16.60;79.60
680;DHT22;322;48.846;9.230;2023-05-14T08:37:16;16.60;79.10
680;DHT22;322;48.846;9.230;2023-05-14T08:39:44;16.50;78.90
680;DHT22;322;48.846;9.230;2023-05-14T08:42:12;16.50;78.60
680;DHT22;322;48.846;9.230;2023-05-14T08:44:47;16.50;79.20
680;DHT22;322;48.846;9.230;2023-05-14T08:47:17;16.60;79.70
680;DHT22;322;48.846;9.230;2023-05-14T08:49:54;16.90;80.40
680;DHT22;322;48.846;9.230;2023-05-14T08:52:24;17.10;78.10
680;DHT22;322;48.846;9.230;2023-05-14T08:54:53;17.20;77.70
680;DHT22;322;48.846;9.230;2023-05-14T08:57:23;17.50;77.70
680;DHT22;322;48.846;9.230;2023-05-14T08:59:53;17.60;77.10
680;DHT22;322;48.846;9.230;2023-05-14T09:02:23;17.40;76.70
680;DHT22;322;48.846;9.230;2023-05-14T09:04:54;17.20;80.80
680;DHT22;322;48.846;9.230;2023-05-14T09:07:23;17.20;78.90
680;DHT22;322;48.846;9.230;2023-05-14T09:09:52;16.70;78.50
680;DHT22;322;48.846;9.230;2023-05-14T09:12:21;16.70;81.60
680;DHT22;322;48.846;9.230;2023-05-14T09:14:49;17.00;79.50
680;DHT22;322;48.846;9.230;2023-05-14T09:17:19;17.20;81.70
680;DHT22;322;48.846;9.230;2023-05-14T09:19:47;17.70;80.00
680;DHT22;322;48.846;9.230;2023-05-14T09:22:19;18.10;77.00
680;DHT22;322;48.846;9.230;2023-05-14T09:25:02;18.10;73.80
680;DHT22;322;48.846;9.230;2023-05-14T09:27:31;18.00;74.20
680;DHT22;322;48.846;9.230;2023-05-14T09:30:07;17.80;74.10
680;DHT22;322;48.846;9.230;2023-05-14T09:32:42;17.70;73.20
680;DHT22;322;48.846;9.230;2023-05-14T09:35:16;17.50;78.30
680;DHT22;322;48.846;9.230;2023-05-14T09:37:46;17.20;76.90
680;DHT22;322;48.846;9.230;2023-05-14T09:40:15;17.20;77.60
680;DHT22;322;48.846;9.230;2023-05-14T09:42:43;17.60;78.90
680;DHT22;322;48.846;9.230;2023-05-14T09:45:11;18.30;74.80
680;DHT22;322;48.846;9.230;2023-05-14T09:47:40;18.90;70.00
680;DHT22;322;48.846;9.230;2023-05-14T09:50:11;19.10;69.50
680;DHT22;322;48.846;9.230;2023-05-14T09:52:39;19.10;68.60
680;DHT22;322;48.846;9.230;2023-05-14T09:55:07;19.00;67.40
680;DHT22;322;48.846;9.230;2023-05-14T09:57:35;19.10;70.60
680;DHT22;322;48.846;9.230;2023-05-14T10:00:04;19.30;70.60
680;DHT22;322;48.846;9.230;2023-05-14T10:02:35;19.60;66.30
680;DHT22;322;48.846;9.230;2023-05-14T10:05:08;19.50;67.30
680;DHT22;322;48.846;9.230;2023-05-14T10:07:40;19.70;71.50
680;DHT22;322;48.846;9.230;2023-05-14T10:10:12;19.90;66.50
680;DHT22;322;48.846;9.230;2023-05-14T10:12:44;20.30;68.20
680;DHT22;322;48.846;9.230;2023-05-14T10:15:19;20.70;63.00
680;DHT22;322;48.846;9.230;2023-05-14T10:17:54;21.20;65.10
680;DHT22;322;48.846;9.230;2023-05-14T10:20:24;20.80;62.50
680;DHT22;322;48.846;9.230;2023-05-14T10:22:53;21.00;64.50
680;DHT22;322;48.846;9.230;2023-05-14T10:25:22;21.20;64.10
680;DHT22;322;48.846;9.230;2023-05-14T10:27:50;22.20;62.10
680;DHT22;322;48.846;9.230;2023-05-14T10:30:20;22.90;62.50
680;DHT22;322;48.846;9.230;2023-05-14T10:33:04;23.10;59.00
680;DHT22;322;48.846;9.230;2023-05-14T10:35:50;22.30;57.70
680;DHT22;322;48.846;9.230;2023-05-14T10:38:22;20.10;62.00
680;DHT22;322;48.846;9.230;2023-05-14T10:40:50;18.80;65.90
680;DHT22;322;48.846;9.230;2023-05-14T10:43:20;18.10;70.20
680;DHT22;322;48.846;9.230;2023-05-14T10:45:49;18.00;72.90
680;DHT22;322;48.846;9.230;2023-05-14T10:48:21;18.10;71.10
680;DHT22;322;48.846;9.230;2023-05-14T10:50:51;18.20;72.10
680;DHT22;322;48.846;9.230;2023-05-14T10:53:20;18.30;71.00
680;DHT22;322;48.846;9.230;2023-05-14T10:55:56;18.30;70.20
680;DHT22;322;48.846;9.230;2023-05-14T10:58:25;18.70;69.80
680;DHT22;322;48.846;9.230;2023-05-14T11:00:55;19.70;66.50
680;DHT22;322;48.846;9.230;2023-05-14T11:03:23;20.50;64.00
680;DHT22;322;48.846;9.230;2023-05-14T11:05:57;20.80;63.30
680;DHT22;322;48.846;9.230;2023-05-14T11:08:27;20.90;63.00
680;DHT22;322;48.846;9.230;2023-05-14T11:10:56;20.90;62.90
680;DHT22;322;48.846;9.230;2023-05-14T11:13:25;21.20;61.40
680;DHT22;322;48.846;9.230;2023-05-14T11:15:53;21.70;60.00
680;DHT22;322;48.846;9.230;2023-05-14T11:18:25;21.00;60.20
680;DHT22;322;48.846;9.230;2023-05-14T11:20:59;21.30;60.00
680;DHT22;322;48.846;9.230;2023-05-14T11:23:27;22.50;60.90
680;DHT22;322;48.846;9.230;2023-05-14T11:25:55;23.50;56.70
680;DHT22;322;48.846;9.230;2023-05-14T11:28:25;23.50;54.20
680;DHT22;322;48.846;9.230;2023-05-14T11:30:53;21.50;56.40
680;DHT22;322;48.846;9.230;2023-05-14T11:33:21;20.40;60.70
680;DHT22;322;48.846;9.230;2023-05-14T11:35:49;19.80;63.40
680;DHT22;322;48.846;9.230;2023-05-14T11:38:20;19.50;64.20
680;DHT22;322;48.846;9.230;2023-05-14T11:40:50;19.10;62.80
680;DHT22;322;48.846;9.230;2023-05-14T11:43:19;19.50;72.50
680;DHT22;322;48.846;9.230;2023-05-14T11:45:49;20.20;62.30
680;DHT22;322;48.846;9.230;2023-05-14T11:48:18;19.90;61.40
680;DHT22;322;48.846;9.230;2023-05-14T11:50:47;20.00;70.80
680;DHT22;322;48.846;9.230;2023-05-14T11:53:16;20.10;70.20
680;DHT22;322;48.846;9.230;2023-05-14T11:55:46;20.00;70.00
680;DHT22;322;48.846;9.230;2023-05-14T11:58:14;20.00;74.30
680;DHT22;322;48.846;9.230;2023-05-14T12:00:44;20.00;69.90
680;DHT22;322;48.846;9.230;2023-05-14T12:03:13;20.00;70.10
680;DHT22;322;48.846;9.230;2023-05-14T12:05:54;20.30;72.60
680;DHT22;322;48.846;9.230;2023-05-14T12:08:25;20.80;67.60
680;DHT22;322;48.846;9.230;2023-05-14T12:10:56;21.30;64.20
680;DHT22;322;48.846;9.230;2023-05-14T12:13:25;21.50;64.40
680;DHT22;322;48.846;9.230;2023-05-14T12:15:54;22.00;60.80
680;DHT22;322;48.846;9.230;2023-05-14T12:18:23;23.20;63.30
680;DHT22;322;48.846;9.230;2023-05-14T12:20:52;24.70;57.90
680;DHT22;322;48.846;9.230;2023-05-14T12:23:24;23.70;52.80
680;DHT22;322;48.846;9.230;2023-05-14T12:25:52;22.00;56.60
680;DHT22;322;48.846;9.230;2023-05-14T12:28:22;20.50;57.60
680;DHT22;322;48.846;9.230;2023-05-14T12:30:55;19.60;60.70
680;DHT22;322;48.846;9.230;2023-05-14T12:33:23;19.90;60.70
680;DHT22;322;48.846;9.230;2023-05-14T12:35:52;20.10;59.20
680;DHT22;322;48.846;9.230;2023-05-14T12:38:26;20.70;58.40
680;DHT22;322;48.846;9.230;2023-05-14T12:40:54;21.90;57.40
680;DHT22;322;48.846;9.230;2023-05-14T12:43:23;22.00;55.30
680;DHT22;322;48.846;9.230;2023-05-14T12:45:57;21.90;55.70
680;DHT22;322;48.846;9.230;2023-05-14T12:48:25;22.10;55.20
680;DHT22;322;48.846;9.230;2023-05-14T12:50:53;22.50;52.70
680;DHT22;322;48.846;9.230;2023-05-14T12:53:21;22.50;55.60
680;DHT22;322;48.846;9.230;2023-05-14T12:55:49;22.70;55.80
680;DHT22;322;48.846;9.230;2023-05-14T12:58:17;22.70;57.00
680;DHT22;322;48.846;9.230;2023-05-14T13:00:46;22.70;55.60
680;DHT22;322;48.846;9.230;2023-05-14T13:03:14;22.00;54.60
680;DHT22;322;48.846;9.230;2023-05-14T13:05:42;21.10;55.50
680;DHT22;322;48.846;9.230;2023-05-14T13:08:10;19.90;59.70
680;DHT22;322;48.846;9.230;2023-05-14T13:10:40;18.80;63.40
680;DHT22;322;48.846;9.230;2023-05-14T13:13:08;18.00;66.80
680;DHT22;322;48.846;9.230;2023-05-14T13:15:36;17.70;66.70
680;DHT22;322;48.846;9.230;2023-05-14T13:18:06;17.80;69.00
680;DHT22;322;48.846;9.230;2023-05-14T13:20:34;17.90;67.30
680;DHT22;322;48.846;9.230;2023-05-14T13:23:02;17.80;66.70
680;DHT22;322;48.846;9.230;2023-05-14T13:25:30;17.80;66.00
680;DHT22;322;48.846;9.230;2023-05-14T13:27:58;17.90;65.90
680;DHT22;322;48.846;9.230;2023-05-14T13:30:26;18.00;65.50
680;DHT22;322;48.846;9.230;2023-05-14T13:32:54;18.40;61.50
680;DHT22;322;48.846;9.230;2023-05-14T13:35:24;18.90;59.70
680;DHT22;322;48.846;9.230;2023-05-14T13:37:52;18.90;60.70
680;DHT22;322;48.846;9.230;2023-05-14T13:40:20;18.70;61.30
680;DHT22;322;48.846;9.230;2023-05-14T13:42:48;18.60;60.80
680;DHT22;322;48.846;9.230;2023-05-14T13:45:16;18.70;62.60
680;DHT22;322;48.846;9.230;2023-05-14T13:47:44;18.60;64.40
680;DHT22;322;48.846;9.230;2023-05-14T13:50:15;18.70;63.10
680;DHT22;322;48.846;9.230;2023-05-14T13:52:44;18.80;62.90
680;DHT22;322;48.846;9.230;2023-05-14T13:55:12;18.90;62.50
680;DHT22;322;48.846;9.230;2023-05-14T13:57:40;18.90;61.50
680;DHT22;322;48.846;9.230;2023-05-14T14:00:09;19.20;60.50
680;DHT22;322;48.846;9.230;2023-05-14T14:02:37;19.60;60.20
680;DHT22;322;48.846;9.230;2023-05-14T14:05:06;19.60;59.80
680;DHT22;322;48.846;9.230;2023-05-14T14:07:34;19.80;60.00
680;DHT22;322;48.846;9.230;2023-05-14T14:10:04;19.90;57.60
680;DHT22;322;48.846;9.230;2023-05-14T14:12:32;19.70;58.10
680;DHT22;322;48.846;9.230;2023-05-14T14:15:00;20.00;57.60
680;DHT22;322;48.846;9.230;2023-05-14T14:17:29;20.30;57.60
680;DHT22;322;48.846;9.230;2023-05-14T14:19:59;20.20;57.50
680;DHT22;322;48.846;9.230;2023-05-14T14:22:27;20.30;58.10
680;DHT22;322;48.846;9.230;2023-05-14T14:24:55;20.70;57.00
680;DHT22;322;48.846;9.230;2023-05-14T14:27:24;21.80;55.00
680;DHT22;322;48.846;9.230;2023-05-14T14:29:52;22.80;52.10
680;DHT22;322;48.846;9.230;2023-05-14T14:32:22;23.10;50.20
680;DHT22;322;48.846;9.230;2023-05-14T14:34:50;23.10;49.80
680;DHT22;322;48.846;9.230;2023-05-14T14:37:18;22.00;50.20
680;DHT22;322;48.846;9.230;2023-05-14T14:39:48;21.70;52.70
680;DHT22;322;48.846;9.230;2023-05-14T14:42:16;22.20;51.40
680;DHT22;322;48.846;9.230;2023-05-14T14:44:45;23.00;51.60
680;DHT22;322;48.846;9.230;2023-05-14T14:47:13;23.20;48.80
680;DHT22;322;48.846;9.230;2023-05-14T14:49:41;23.30;48.40
680;DHT22;322;48.846;9.230;2023-05-14T14:52:09;23.90;47.80
680;DHT22;322;48.846;9.230;2023-05-14T14:54:37;24.70;46.80
680;DHT22;322;48.846;9.230;2023-05-14T14:57:05;24.50;47.20
680;DHT22;322;48.846;9.230;2023-05-14T14:59:34;24.50;48.30
680;DHT22;322;48.846;9.230;2023-05-14T15:02:03;23.30;50.80
680;DHT22;322;48.846;9.230;2023-05-14T15:04:32;22.90;50.60
680;DHT22;322;48.846;9.230;2023-05-14T15:07:00;22.90;52.90
680;DHT22;322;48.846;9.230;2023-05-14T15:09:28;22.30;53.50
680;DHT22;322;48.846;9.230;2023-05-14T15:11:56;21.40;55.80
680;DHT22;322;48.846;9.230;2023-05-14T15:14:24;20.30;56.90
680;DHT22;322;48.846;9.230;2023-05-14T15:16:52;19.10;67.00
680;DHT22;322;48.846;9.230;2023-05-14T15:19:22;18.10;66.00
680;DHT22;322;48.846;9.230;2023-05-14T15:21:49;17.50;65.70
680;DHT22;322;48.846;9.230;2023-05-14T15:24:17;17.30;71.00
680;DHT22;322;48.846;9.230;2023-05-14T15:26:45;17.30;71.00
680;DHT22;322;48.846;9.230;2023-05-14T15:29:13;17.30;68.70
680;DHT22;322;48.846;9.230;2023-05-14T15:31:41;17.30;67.50
680;DHT22;322;48.846;9.230;2023-05-14T15:34:11;17.40;66.70
680;DHT22;322;48.846;9.230;2023-05-14T15:36:44;17.50;66.30
680;DHT22;322;48.846;9.230;2023-05-14T15:39:12;17.50;65.60
680;DHT22;322;48.846;9.230;2023-05-14T15:41:40;17.50;65.20
680;DHT22;322;48.846;9.230;2023-05-14T15:44:08;17.60;65.20
680;DHT22;322;48.846;9.230;2023-05-14T15:46:36;17.70;65.40
680;DHT22;322;48.846;9.230;2023-05-14T15:49:04;17.90;62.00
680;DHT22;322;48.846;9.230;2023-05-14T15:51:33;18.10;63.30
680;DHT22;322;48.846;9.230;2023-05-14T15:54:02;18.90;60.10
680;DHT22;322;48.846;9.230;2023-05-14T15:56:30;18.90;58.20
680;DHT22;322;48.846;9.230;2023-05-14T15:58:58;18.70;58.70
680;DHT22;322;48.846;9.230;2023-05-14T16:01:26;18.20;59.50
680;DHT22;322;48.846;9.230;2023-05-14T16:03:54;18.00;61.50
680;DHT22;322;48.846;9.230;2023-05-14T16:06:22;18.10;61.40
680;DHT22;322;48.846;9.230;2023-05-14T16:08:50;18.70;63.50
680;DHT22;322;48.846;9.230;2023-05-14T16:11:19;20.20;62.10
680;DHT22;322;48.846;9.230;2023-05-14T16:13:47;21.80;55.40
680;DHT22;322;48.846;9.230;2023-05-14T16:16:15;22.40;53.30
680;DHT22;322;48.846;9.230;2023-05-14T16:18:43;22.50;52.40
680;DHT22;322;48.846;9.230;2023-05-14T16:21:11;22.60;52.70
680;DHT22;322;48.846;9.230;2023-05-14T16:23:39;22.70;52.80
680;DHT22;322;48.846;9.230;2023-05-14T16:26:07;22.90;52.20
680;DHT22;322;48.846;9.230;2023-05-14T16:28:36;22.60;51.80
680;DHT22;322;48.846;9.230;2023-05-14T16:31:06;22.40;51.70
680;DHT22;322;48.846;9.230;2023-05-14T16:33:34;22.30;51.90
680;DHT22;322;48.846;9.230;2023-05-14T16:36:03;22.40;52.00
680;DHT22;322;48.846;9.230;2023-05-14T16:38:31;22.40;51.10
680;DHT22;322;48.846;9.230;2023-05-14T16:41:01;22.30;51.20
680;DHT22;322;48.846;9.230;2023-05-14T16:43:29;22.40;51.70
680;DHT22;322;48.846;9.230;2023-05-14T16:46:01;22.00;52.20
680;DHT22;322;48.846;9.230;2023-05-14T16:48:29;22.20;50.60
680;DHT22;322;48.846;9.230;2023-05-14T16:50:57;22.40;52.10